Accueil
METAR-TAF:

METAR-TAF

Aéroports :

Aéroport de Stuttgart

Stuttgart, Allemagne

latitude: 48-41N, longitude: 009-13E, altitude: 396 m

Observation

Le bulletin a été fait il y a 22 minutes, à 13:50 UTC
Vent 5 kt de direction variable
Température 29°C
Humidité 35%
Pression 1019 hPa
Visibilité 10 km ou plus
pas de nuages en-dessous de 1500 mètres et pas de cumulonimbus.

METAR: EDDS 201350Z VRB05KT CAVOK 29/12 Q1019 NOSIG

Heure: 16:12 (14:12 UTC)

Prévision

Le bulletin a été fait il y a 3 heures et 12 minutes, à 11:00 UTC
Prévision valable du 20 à 12 UTC au 21 à 12 UTC
Vent 5 kt de ouest/nord-ouest
Visibilité 10 km ou plus
Nuages épars à une hauteur de 4500 ft
Temporairement
du 20 à 15 UTC au 20 à 18 UTC
Vent 10 kt de nord/nord-ouest
Evoluant progressivement
du 21 à 06 UTC au 21 à 08 UTC
Vent 5 kt de nord/nord-est

TAF: EDDS 201100Z 2012/2112 30005KT 9999 SCT045 TEMPO 2015/2018 33010KT BECMG 2106/2108 03005KT

Observations et prévisions météorologiques de plus de 4000 aéroports (messages METAR et TAF).

Les stations disponibles sont représentées par des disques jaunes et rouges sur la carte.

Passer la souris dessus pour voir le nom de la station.

Cliquer dessus pour voir les observations et prévisions météorologiques.

Pour changer de carte: cliquez sur les boutons verts avec une croix noire pour zoomer, sur le bouton vert avec un tiret pour effectuer un zoom arrière, ou sur les flèches vertes pour les cartes adjacentes.


METAR-TAF: